Indianapolis, Indiana
Traffic Map
Current Weather Conditions
Indianapolis, Indiana
Overcast
Overcast
33°
Feels Like: 26°
Wind Chill: 26° Ceiling: 600
Heat Index: 33° Visibility: 9mi
Dew Point: 31° Wind: 8mph
Humidity: 92% Direction: 250° (WSW)
Pressure: 29.67in Gusts: 0mph
Raw Report DataKIND 081254Z 25007KT 9SM BKN006 OVC021 01/M01 A2967 RMK AO2 SLP049 T00061006
Traffic Incident Summary
Active as of:
Severity:
Category:
InformationThere was an issue retrieving the traffic information for this location. Please try a different location or try again shortly.
Advertisements
Track Severe Weather on mobile